sensor_id;sensor_type;location;lat;lon;timestamp;pressure;altitude;pressure_sealevel;temperature;humidity
5996;BME280;3026;53.612;7.278;2023-04-26T00:02:26;101578.09;;;5.81;100.00
5996;BME280;3026;53.612;7.278;2023-04-26T00:04:54;101573.56;;;5.82;100.00
5996;BME280;3026;53.612;7.278;2023-04-26T00:07:23;101580.09;;;5.79;100.00
5996;BME280;3026;53.612;7.278;2023-04-26T00:09:51;101581.81;;;5.80;100.00
5996;BME280;3026;53.612;7.278;2023-04-26T00:12:18;101574.66;;;5.79;100.00
5996;BME280;3026;53.612;7.278;2023-04-26T00:14:44;101582.28;;;5.74;100.00
5996;BME280;3026;53.612;7.278;2023-04-26T00:17:14;101581.56;;;5.72;100.00
5996;BME280;3026;53.612;7.278;2023-04-26T00:19:41;101577.13;;;5.71;100.00
5996;BME280;3026;53.612;7.278;2023-04-26T00:22:09;101587.94;;;5.71;100.00
5996;BME280;3026;53.612;7.278;2023-04-26T00:24:36;101594.47;;;5.69;100.00
5996;BME280;3026;53.612;7.278;2023-04-26T00:27:03;101591.38;;;5.73;100.00
5996;BME280;3026;53.612;7.278;2023-04-26T00:29:33;101584.72;;;5.77;100.00
5996;BME280;3026;53.612;7.278;2023-04-26T00:32:00;101585.50;;;5.79;100.00
5996;BME280;3026;53.612;7.278;2023-04-26T00:34:31;101582.66;;;5.81;100.00
5996;BME280;3026;53.612;7.278;2023-04-26T00:36:58;101585.50;;;5.79;100.00
5996;BME280;3026;53.612;7.278;2023-04-26T00:39:26;101580.56;;;5.73;100.00
5996;BME280;3026;53.612;7.278;2023-04-26T00:41:53;101585.00;;;5.74;100.00
5996;BME280;3026;53.612;7.278;2023-04-26T00:44:20;101584.25;;;5.72;100.00
5996;BME280;3026;53.612;7.278;2023-04-26T00:46:47;101577.38;;;5.68;100.00
5996;BME280;3026;53.612;7.278;2023-04-26T00:49:16;101575.63;;;5.67;100.00
5996;BME280;3026;53.612;7.278;2023-04-26T00:51:44;101573.31;;;5.63;100.00
5996;BME280;3026;53.612;7.278;2023-04-26T00:54:11;101565.31;;;5.61;100.00
5996;BME280;3026;53.612;7.278;2023-04-26T00:56:41;101576.13;;;5.61;100.00
5996;BME280;3026;53.612;7.278;2023-04-26T00:59:08;101572.44;;;5.62;100.00
5996;BME280;3026;53.612;7.278;2023-04-26T01:01:35;101574.28;;;5.62;100.00
5996;BME280;3026;53.612;7.278;2023-04-26T01:04:02;101575.28;;;5.61;100.00
5996;BME280;3026;53.612;7.278;2023-04-26T01:06:32;101573.31;;;5.63;100.00
5996;BME280;3026;53.612;7.278;2023-04-26T01:09:02;101575.88;;;5.64;100.00
5996;BME280;3026;53.612;7.278;2023-04-26T01:11:30;101567.03;;;5.62;100.00
5996;BME280;3026;53.612;7.278;2023-04-26T01:13:58;101583.00;;;5.65;100.00
5996;BME280;3026;53.612;7.278;2023-04-26T01:16:26;101577.59;;;5.65;100.00
5996;BME280;3026;53.612;7.278;2023-04-26T01:18:53;101572.91;;;5.67;100.00
5996;BME280;3026;53.612;7.278;2023-04-26T01:21:21;101569.13;;;5.70;100.00
5996;BME280;3026;53.612;7.278;2023-04-26T01:23:51;101579.09;;;5.69;100.00
5996;BME280;3026;53.612;7.278;2023-04-26T01:26:18;101573.69;;;5.69;100.00
5996;BME280;3026;53.612;7.278;2023-04-26T01:28:45;101577.38;;;5.68;100.00
5996;BME280;3026;53.612;7.278;2023-04-26T01:31:13;101582.78;;;5.68;100.00
5996;BME280;3026;53.612;7.278;2023-04-26T01:33:40;101577.38;;;5.68;100.00
5996;BME280;3026;53.612;7.278;2023-04-26T01:36:08;101582.28;;;5.74;100.00
5996;BME280;3026;53.612;7.278;2023-04-26T01:38:35;101587.22;;;5.80;100.00
5996;BME280;3026;53.612;7.278;2023-04-26T01:41:03;101593.47;;;5.81;100.00
5996;BME280;3026;53.612;7.278;2023-04-26T01:43:30;101583.53;;;5.81;100.00
5996;BME280;3026;53.612;7.278;2023-04-26T01:45:57;101592.84;;;5.77;100.00
5996;BME280;3026;53.612;7.278;2023-04-26T01:48:24;101593.09;;;5.74;100.00
5996;BME280;3026;53.612;7.278;2023-04-26T01:50:50;101596.06;;;5.71;100.00
5996;BME280;3026;53.612;7.278;2023-04-26T01:53:17;101573.31;;;5.63;100.00
5996;BME280;3026;53.612;7.278;2023-04-26T01:55:44;101586.72;;;5.64;100.00
5996;BME280;3026;53.612;7.278;2023-04-26T01:58:12;101584.97;;;5.63;100.00
5996;BME280;3026;53.612;7.278;2023-04-26T02:00:39;101578.72;;;5.63;100.00
5996;BME280;3026;53.612;7.278;2023-04-26T02:03:06;101596.53;;;5.65;100.00
5996;BME280;3026;53.612;7.278;2023-04-26T02:05:33;101585.84;;;5.64;100.00
5996;BME280;3026;53.612;7.278;2023-04-26T02:07:59;101582.28;;;5.63;100.00
5996;BME280;3026;53.612;7.278;2023-04-26T02:10:26;101578.09;;;5.59;100.00
5996;BME280;3026;53.612;7.278;2023-04-26T02:12:53;101583.38;;;5.61;100.00
5996;BME280;3026;53.612;7.278;2023-04-26T02:15:21;101581.81;;;5.58;100.00
5996;BME280;3026;53.612;7.278;2023-04-26T02:17:48;101578.59;;;5.53;100.00
5996;BME280;3026;53.612;7.278;2023-04-26T02:20:15;101577.59;;;5.54;100.00
5996;BME280;3026;53.612;7.278;2023-04-26T02:22:42;101582.03;;;5.55;100.00
5996;BME280;3026;53.612;7.278;2023-04-26T02:25:08;101575.75;;;5.54;100.00
5996;BME280;3026;53.612;7.278;2023-04-26T02:27:36;101571.31;;;5.53;100.00
5996;BME280;3026;53.612;7.278;2023-04-26T02:30:03;101577.59;;;5.54;100.00
5996;BME280;3026;53.612;7.278;2023-04-26T02:32:32;101570.47;;;5.53;100.00
5996;BME280;3026;53.612;7.278;2023-04-26T02:34:58;101571.19;;;5.55;100.00
5996;BME280;3026;53.612;7.278;2023-04-26T02:37:25;101581.06;;;5.56;100.00
5996;BME280;3026;53.612;7.278;2023-04-26T02:39:52;101578.22;;;5.57;100.00
5996;BME280;3026;53.612;7.278;2023-04-26T02:42:19;101579.56;;;5.63;100.00
5996;BME280;3026;53.612;7.278;2023-04-26T02:44:46;101579.31;;;5.66;100.00
5996;BME280;3026;53.612;7.278;2023-04-26T02:47:13;101575.63;;;5.67;100.00
5996;BME280;3026;53.612;7.278;2023-04-26T02:49:41;101577.38;;;5.68;100.00
5996;BME280;3026;53.612;7.278;2023-04-26T02:52:08;101572.81;;;5.69;100.00
5996;BME280;3026;53.612;7.278;2023-04-26T02:54:35;101576.25;;;5.71;100.00
5996;BME280;3026;53.612;7.278;2023-04-26T02:57:01;101580.56;;;5.73;100.00
5996;BME280;3026;53.612;7.278;2023-04-26T02:59:28;101569.47;;;5.76;100.00
5996;BME280;3026;53.612;7.278;2023-04-26T03:01:55;101579.22;;;5.79;100.00
5996;BME280;3026;53.612;7.278;2023-04-26T03:04:22;101581.81;;;5.80;100.00
5996;BME280;3026;53.612;7.278;2023-04-26T03:06:50;101583.53;;;5.81;100.00
5996;BME280;3026;53.612;7.278;2023-04-26T03:09:17;101571.72;;;5.82;100.00
5996;BME280;3026;53.612;7.278;2023-04-26T03:11:44;101577.47;;;5.89;100.00
5996;BME280;3026;53.612;7.278;2023-04-26T03:14:11;101566.56;;;5.91;100.00
5996;BME280;3026;53.612;7.278;2023-04-26T03:16:40;101577.41;;;5.91;100.00
5996;BME280;3026;53.612;7.278;2023-04-26T03:19:07;101572.00;;;5.91;100.00
5996;BME280;3026;53.612;7.278;2023-04-26T03:21:34;101574.31;;;5.95;100.00
5996;BME280;3026;53.612;7.278;2023-04-26T03:24:03;101573.19;;;5.98;100.00
5996;BME280;3026;53.612;7.278;2023-04-26T03:26:29;101565.78;;;6.00;100.00
5996;BME280;3026;53.612;7.278;2023-04-26T03:28:56;101571.00;;;6.03;100.00
5996;BME280;3026;53.612;7.278;2023-04-26T03:31:23;101565.56;;;6.03;100.00
5996;BME280;3026;53.612;7.278;2023-04-26T03:33:50;101572.06;;;6.00;100.00
5996;BME280;3026;53.612;7.278;2023-04-26T03:36:17;101555.50;;;5.94;100.00
5996;BME280;3026;53.612;7.278;2023-04-26T03:38:44;101560.91;;;5.94;100.00
5996;BME280;3026;53.612;7.278;2023-04-26T03:41:13;101560.91;;;5.94;100.00
5996;BME280;3026;53.612;7.278;2023-04-26T03:43:39;101567.31;;;5.93;100.00
5996;BME280;3026;53.612;7.278;2023-04-26T03:46:06;101561.16;;;5.91;100.00
5996;BME280;3026;53.612;7.278;2023-04-26T03:48:33;101562.22;;;5.88;100.00
5996;BME280;3026;53.612;7.278;2023-04-26T03:51:03;101557.91;;;5.85;100.00
5996;BME280;3026;53.612;7.278;2023-04-26T03:53:33;101560.75;;;5.84;100.00
5996;BME280;3026;53.612;7.278;2023-04-26T03:56:00;101556.47;;;5.81;100.00
5996;BME280;3026;53.612;7.278;2023-04-26T03:58:28;101565.31;;;5.83;100.00
5996;BME280;3026;53.612;7.278;2023-04-26T04:00:55;101560.88;;;5.82;100.00
5996;BME280;3026;53.612;7.278;2023-04-26T04:03:23;101563.59;;;5.82;100.00
5996;BME280;3026;53.612;7.278;2023-04-26T04:05:49;101567.88;;;5.85;100.00
5996;BME280;3026;53.612;7.278;2023-04-26T04:08:16;101559.63;;;5.86;100.00
5996;BME280;3026;53.612;7.278;2023-04-26T04:10:43;101557.91;;;5.85;100.00
5996;BME280;3026;53.612;7.278;2023-04-26T04:13:10;101564.78;;;5.90;100.00
5996;BME280;3026;53.612;7.278;2023-04-26T04:15:38;101570.19;;;5.90;100.00
5996;BME280;3026;53.612;7.278;2023-04-26T04:18:05;101563.06;;;5.89;100.00
5996;BME280;3026;53.612;7.278;2023-04-26T04:20:32;101570.47;;;5.86;100.00
5996;BME280;3026;53.612;7.278;2023-04-26T04:22:59;101567.03;;;5.84;100.00
5996;BME280;3026;53.612;7.278;2023-04-26T04:25:26;101574.16;;;5.85;100.00
5996;BME280;3026;53.612;7.278;2023-04-26T04:27:53;101577.84;;;5.84;100.00
5996;BME280;3026;53.612;7.278;2023-04-26T04:30:21;101570.97;;;5.80;100.00
5996;BME280;3026;53.612;7.278;2023-04-26T04:32:50;101580.94;;;5.80;100.00
5996;BME280;3026;53.612;7.278;2023-04-26T04:35:17;101583.75;;;5.78;100.00
5996;BME280;3026;53.612;7.278;2023-04-26T04:37:44;101578.34;;;5.78;100.00
5996;BME280;3026;53.612;7.278;2023-04-26T04:40:11;101580.09;;;5.79;100.00
5996;BME280;3026;53.612;7.278;2023-04-26T04:42:38;101572.81;;;5.80;100.00
5996;BME280;3026;53.612;7.278;2023-04-26T04:45:06;101564.94;;;5.77;100.00
5996;BME280;3026;53.612;7.278;2023-04-26T04:47:33;101577.84;;;5.84;100.00
5996;BME280;3026;53.612;7.278;2023-04-26T04:50:04;101578.72;;;5.85;100.00
5996;BME280;3026;53.612;7.278;2023-04-26T04:52:31;101571.19;;;5.89;100.00
5996;BME280;3026;53.612;7.278;2023-04-26T04:54:58;101576.50;;;5.90;100.00
5996;BME280;3026;53.612;7.278;2023-04-26T04:57:25;101575.63;;;5.90;100.00
5996;BME280;3026;53.612;7.278;2023-04-26T04:59:52;101568.50;;;5.89;100.00
5996;BME280;3026;53.612;7.278;2023-04-26T05:02:19;101575.63;;;5.90;100.00
5996;BME280;3026;53.612;7.278;2023-04-26T05:04:46;101578.44;;;5.88;100.00
5996;BME280;3026;53.612;7.278;2023-04-26T05:07:14;101587.56;;;5.87;100.00
5996;BME280;3026;53.612;7.278;2023-04-26T05:09:42;101584.72;;;5.89;100.00
5996;BME280;3026;53.612;7.278;2023-04-26T05:12:10;101587.34;;;5.90;100.00
5996;BME280;3026;53.612;7.278;2023-04-26T05:14:37;101581.94;;;5.90;100.00
5996;BME280;3026;53.612;7.278;2023-04-26T05:17:05;101572.91;;;5.90;100.00
5996;BME280;3026;53.612;7.278;2023-04-26T05:19:32;101585.53;;;5.91;100.00
5996;BME280;3026;53.612;7.278;2023-04-26T05:21:58;101599.06;;;5.91;100.00
5996;BME280;3026;53.612;7.278;2023-04-26T05:24:28;101582.81;;;5.91;100.00
5996;BME280;3026;53.612;7.278;2023-04-26T05:26:57;101585.25;;;5.94;100.00
5996;BME280;3026;53.612;7.278;2023-04-26T05:29:24;101595.97;;;5.95;100.00
5996;BME280;3026;53.612;7.278;2023-04-26T05:31:54;101592.00;;;5.99;100.00
5996;BME280;3026;53.612;7.278;2023-04-26T05:34:21;101592.88;;;6.00;100.00
5996;BME280;3026;53.612;7.278;2023-04-26T05:36:48;101598.28;;;6.00;100.00
5996;BME280;3026;53.612;7.278;2023-04-26T05:39:16;101596.22;;;6.03;100.00
5996;BME280;3026;53.612;7.278;2023-04-26T05:41:44;101602.09;;;6.08;100.00
5996;BME280;3026;53.612;7.278;2023-04-26T05:44:12;101599.25;;;6.10;100.00
5996;BME280;3026;53.612;7.278;2023-04-26T05:46:38;101602.56;;;6.13;100.00
5996;BME280;3026;53.612;7.278;2023-04-26T05:49:05;101602.47;;;6.15;100.00
5996;BME280;3026;53.612;7.278;2023-04-26T05:51:32;101596.78;;;6.18;100.00
5996;BME280;3026;53.612;7.278;2023-04-26T05:53:59;101599.97;;;6.23;100.00
5996;BME280;3026;53.612;7.278;2023-04-26T05:56:26;101598.75;;;6.27;100.00
5996;BME280;3026;53.612;7.278;2023-04-26T05:58:54;101604.63;;;6.32;100.00
5996;BME280;3026;53.612;7.278;2023-04-26T06:01:21;101600.69;;;6.36;100.00
5996;BME280;3026;53.612;7.278;2023-04-26T06:03:47;101611.03;;;6.42;100.00
5996;BME280;3026;53.612;7.278;2023-04-26T06:06:14;101603.34;;;6.48;100.00
5996;BME280;3026;53.612;7.278;2023-04-26T06:08:41;101603.59;;;6.56;100.00
5996;BME280;3026;53.612;7.278;2023-04-26T06:11:08;101619.09;;;6.65;100.00
5996;BME280;3026;53.612;7.278;2023-04-26T06:13:35;101623.03;;;6.72;100.00
5996;BME280;3026;53.612;7.278;2023-04-26T06:16:04;101619.06;;;6.76;100.00
5996;BME280;3026;53.612;7.278;2023-04-26T06:18:30;101605.00;;;6.71;100.00
5996;BME280;3026;53.612;7.278;2023-04-26T06:20:57;101622.75;;;6.75;100.00
5996;BME280;3026;53.612;7.278;2023-04-26T06:23:24;101631.88;;;6.74;100.00
5996;BME280;3026;53.612;7.278;2023-04-26T06:25:51;101634.09;;;6.69;100.00
5996;BME280;3026;53.612;7.278;2023-04-26T06:28:17;101621.69;;;6.55;100.00
5996;BME280;3026;53.612;7.278;2023-04-26T06:30:44;101621.09;;;6.52;100.00
5996;BME280;3026;53.612;7.278;2023-04-26T06:33:12;101620.38;;;6.50;100.00
5996;BME280;3026;53.612;7.278;2023-04-26T06:35:39;101623.31;;;6.47;100.00
5996;BME280;3026;53.612;7.278;2023-04-26T06:38:06;101627.00;;;6.46;100.00
5996;BME280;3026;53.612;7.278;2023-04-26T06:40:34;101626.41;;;6.42;100.00
5996;BME280;3026;53.612;7.278;2023-04-26T06:43:01;101625.28;;;6.44;100.00
5996;BME280;3026;53.612;7.278;2023-04-26T06:45:28;101621.09;;;6.52;100.00
5996;BME280;3026;53.612;7.278;2023-04-26T06:47:55;101620.56;;;6.58;100.00
5996;BME280;3026;53.612;7.278;2023-04-26T06:50:26;101618.09;;;6.66;100.00
5996;BME280;3026;53.612;7.278;2023-04-26T06:52:53;101627.91;;;6.78;100.00
5996;BME280;3026;53.612;7.278;2023-04-26T06:55:20;101615.56;;;6.85;100.00
5996;BME280;3026;53.612;7.278;2023-04-26T06:57:46;101629.25;;;7.05;100.00
5996;BME280;3026;53.612;7.278;2023-04-26T07:00:14;101629.97;;;7.18;100.00
5996;BME280;3026;53.612;7.278;2023-04-26T07:02:41;101628.91;;;7.30;100.00
5996;BME280;3026;53.612;7.278;2023-04-26T07:05:07;101636.97;;;7.41;100.00
5996;BME280;3026;53.612;7.278;2023-04-26T07:07:36;101634.44;;;7.49;100.00
5996;BME280;3026;53.612;7.278;2023-04-26T07:10:03;101630.78;;;7.60;100.00
5996;BME280;3026;53.612;7.278;2023-04-26T07:12:30;101633.56;;;7.70;100.00
5996;BME280;3026;53.612;7.278;2023-04-26T07:14:57;101637.19;;;7.80;100.00
5996;BME280;3026;53.612;7.278;2023-04-26T07:17:23;101630.41;;;7.95;100.00
5996;BME280;3026;53.612;7.278;2023-04-26T07:19:50;101631.63;;;8.12;100.00
5996;BME280;3026;53.612;7.278;2023-04-26T07:22:17;101645.41;;;8.30;100.00
5996;BME280;3026;53.612;7.278;2023-04-26T07:24:45;101651.75;;;8.40;100.00
5996;BME280;3026;53.612;7.278;2023-04-26T07:27:12;101668.84;;;8.31;100.00
5996;BME280;3026;53.612;7.278;2023-04-26T07:29:38;101665.06;;;8.12;100.00
5996;BME280;3026;53.612;7.278;2023-04-26T07:32:05;101664.06;;;7.83;100.00
5996;BME280;3026;53.612;7.278;2023-04-26T07:34:33;101659.50;;;7.63;100.00
5996;BME280;3026;53.612;7.278;2023-04-26T07:36:59;101668.47;;;7.53;100.00
5996;BME280;3026;53.612;7.278;2023-04-26T07:39:26;101663.28;;;7.50;100.00
5996;BME280;3026;53.612;7.278;2023-04-26T07:41:54;101657.00;;;7.50;100.00
5996;BME280;3026;53.612;7.278;2023-04-26T07:44:21;101653.00;;;7.44;100.00
5996;BME280;3026;53.612;7.278;2023-04-26T07:46:48;101665.28;;;7.48;100.00
5996;BME280;3026;53.612;7.278;2023-04-26T07:49:15;101662.78;;;7.56;100.00
5996;BME280;3026;53.612;7.278;2023-04-26T07:51:43;101663.44;;;7.70;100.00
5996;BME280;3026;53.612;7.278;2023-04-26T07:54:10;101658.44;;;7.75;100.00
5996;BME280;3026;53.612;7.278;2023-04-26T07:56:36;101666.78;;;7.83;100.00
5996;BME280;3026;53.612;7.278;2023-04-26T07:59:04;101674.13;;;7.92;100.00
5996;BME280;3026;53.612;7.278;2023-04-26T08:01:32;101671.84;;;7.97;100.00
5996;BME280;3026;53.612;7.278;2023-04-26T08:03:58;101678.19;;;8.07;100.00
5996;BME280;3026;53.612;7.278;2023-04-26T08:06:25;101672.94;;;8.15;100.00
5996;BME280;3026;53.612;7.278;2023-04-26T08:08:53;101676.84;;;8.23;100.00
5996;BME280;3026;53.612;7.278;2023-04-26T08:11:20;101683.00;;;8.25;100.00
5996;BME280;3026;53.612;7.278;2023-04-26T08:13:47;101677.56;;;8.25;100.00
5996;BME280;3026;53.612;7.278;2023-04-26T08:16:15;101683.44;;;8.30;100.00
5996;BME280;3026;53.612;7.278;2023-04-26T08:18:42;101680.72;;;8.30;100.00
5996;BME280;3026;53.612;7.278;2023-04-26T08:21:08;101680.94;;;8.38;100.00
5996;BME280;3026;53.612;7.278;2023-04-26T08:23:35;101684.41;;;8.50;100.00
5996;BME280;3026;53.612;7.278;2023-04-26T08:26:02;101691.31;;;8.63;100.00
5996;BME280;3026;53.612;7.278;2023-04-26T08:28:29;101692.47;;;8.70;100.00
5996;BME280;3026;53.612;7.278;2023-04-26T08:30:56;101691.47;;;8.71;100.00
5996;BME280;3026;53.612;7.278;2023-04-26T08:33:24;101705.06;;;8.71;100.00
5996;BME280;3026;53.612;7.278;2023-04-26T08:35:51;101696.75;;;8.63;100.00
5996;BME280;3026;53.612;7.278;2023-04-26T08:38:18;101702.16;;;8.54;100.00
5996;BME280;3026;53.612;7.278;2023-04-26T08:40:47;101702.84;;;8.46;100.00
5996;BME280;3026;53.612;7.278;2023-04-26T08:43:14;101706.59;;;8.64;100.00
5996;BME280;3026;53.612;7.278;2023-04-26T08:45:43;101709.22;;;8.75;100.00
5996;BME280;3026;53.612;7.278;2023-04-26T08:48:11;101710.41;;;9.02;100.00
5996;BME280;3026;53.612;7.278;2023-04-26T08:50:42;101708.28;;;9.15;100.00
5996;BME280;3026;53.612;7.278;2023-04-26T08:53:12;101714.00;;;9.31;100.00
5996;BME280;3026;53.612;7.278;2023-04-26T08:55:40;101714.00;;;9.51;100.00
5996;BME280;3026;53.612;7.278;2023-04-26T08:58:07;101709.84;;;9.56;100.00
5996;BME280;3026;53.612;7.278;2023-04-26T09:00:34;101724.59;;;9.73;100.00
5996;BME280;3026;53.612;7.278;2023-04-26T09:03:01;101717.84;;;9.77;100.00
5996;BME280;3026;53.612;7.278;2023-04-26T09:05:28;101713.63;;;9.92;100.00
5996;BME280;3026;53.612;7.278;2023-04-26T09:08:00;101713.91;;;10.09;100.00
5996;BME280;3026;53.612;7.278;2023-04-26T09:10:28;101707.84;;;10.25;100.00
5996;BME280;3026;53.612;7.278;2023-04-26T09:12:56;101708.31;;;10.47;100.00
5996;BME280;3026;53.612;7.278;2023-04-26T09:15:24;101706.50;;;10.66;100.00
5996;BME280;3026;53.612;7.278;2023-04-26T09:17:52;101717.72;;;10.63;100.00
5996;BME280;3026;53.612;7.278;2023-04-26T09:20:21;101715.19;;;10.51;100.00
5996;BME280;3026;53.612;7.278;2023-04-26T09:22:49;101713.25;;;10.34;100.00
5996;BME280;3026;53.612;7.278;2023-04-26T09:25:18;101718.16;;;10.21;100.00
5996;BME280;3026;53.612;7.278;2023-04-26T09:27:45;101725.81;;;10.08;100.00
5996;BME280;3026;53.612;7.278;2023-04-26T09:30:14;101722.81;;;9.91;100.00
5996;BME280;3026;53.612;7.278;2023-04-26T09:32:47;101721.56;;;9.76;100.00
5996;BME280;3026;53.612;7.278;2023-04-26T09:35:26;101726.00;;;9.77;100.00
5996;BME280;3026;53.612;7.278;2023-04-26T09:37:54;101724.00;;;9.79;100.00
5996;BME280;3026;53.612;7.278;2023-04-26T09:40:25;101733.47;;;9.75;100.00
5996;BME280;3026;53.612;7.278;2023-04-26T09:42:59;101721.44;;;9.58;100.00
5996;BME280;3026;53.612;7.278;2023-04-26T09:45:28;101735.78;;;9.51;100.00
5996;BME280;3026;53.612;7.278;2023-04-26T09:48:11;101735.34;;;9.46;100.00
5996;BME280;3026;53.612;7.278;2023-04-26T09:50:38;101729.50;;;9.41;100.00
5996;BME280;3026;53.612;7.278;2023-04-26T09:53:05;101734.06;;;9.40;100.00
5996;BME280;3026;53.612;7.278;2023-04-26T09:55:34;101732.06;;;9.32;100.00
5996;BME280;3026;53.612;7.278;2023-04-26T09:58:07;101730.91;;;9.25;100.00
5996;BME280;3026;53.612;7.278;2023-04-26T10:00:37;101738.63;;;9.20;100.00
5996;BME280;3026;53.612;7.278;2023-04-26T10:03:06;101734.50;;;9.16;100.00
5996;BME280;3026;53.612;7.278;2023-04-26T10:05:33;101735.06;;;9.20;100.00
5996;BME280;3026;53.612;7.278;2023-04-26T10:08:00;101736.94;;;9.39;100.00
5996;BME280;3026;53.612;7.278;2023-04-26T10:10:28;101736.63;;;9.71;100.00
5996;BME280;3026;53.612;7.278;2023-04-26T10:12:57;101740.00;;;10.02;100.00
5996;BME280;3026;53.612;7.278;2023-04-26T10:15:24;101744.88;;;10.08;100.00
5996;BME280;3026;53.612;7.278;2023-04-26T10:17:51;101749.75;;;9.94;100.00
5996;BME280;3026;53.612;7.278;2023-04-26T10:20:19;101763.84;;;9.80;100.00
5996;BME280;3026;53.612;7.278;2023-04-26T10:22:52;101766.59;;;9.61;100.00
5996;BME280;3026;53.612;7.278;2023-04-26T10:25:19;101754.41;;;9.46;100.00
5996;BME280;3026;53.612;7.278;2023-04-26T10:27:50;101760.00;;;9.34;100.00
5996;BME280;3026;53.612;7.278;2023-04-26T10:30:20;101750.41;;;9.30;100.00
5996;BME280;3026;53.612;7.278;2023-04-26T10:33:15;101751.97;;;9.52;100.00
5996;BME280;3026;53.612;7.278;2023-04-26T10:36:04;101751.50;;;9.96;100.00
5996;BME280;3026;53.612;7.278;2023-04-26T10:38:32;101737.97;;;10.23;100.00
5996;BME280;3026;53.612;7.278;2023-04-26T10:41:34;101726.59;;;10.65;100.00
5996;BME280;3026;53.612;7.278;2023-04-26T10:47:21;101738.19;;;10.94;100.00
5996;BME280;3026;53.612;7.278;2023-04-26T10:49:48;101740.47;;;10.99;100.00
5996;BME280;3026;53.612;7.278;2023-04-26T10:52:17;101747.09;;;10.96;100.00
5996;BME280;3026;53.612;7.278;2023-04-26T10:54:54;101740.56;;;10.89;100.00
5996;BME280;3026;53.612;7.278;2023-04-26T10:57:23;101740.84;;;10.86;100.00
5996;BME280;3026;53.612;7.278;2023-04-26T11:00:19;101744.56;;;10.85;100.00
5996;BME280;3026;53.612;7.278;2023-04-26T11:02:55;101741.63;;;10.96;100.00
5996;BME280;3026;53.612;7.278;2023-04-26T11:05:47;101739.13;;;10.85;100.00
5996;BME280;3026;53.612;7.278;2023-04-26T11:08:17;101743.16;;;10.81;100.00
5996;BME280;3026;53.612;7.278;2023-04-26T11:10:49;101745.19;;;10.79;100.00
5996;BME280;3026;53.612;7.278;2023-04-26T11:13:17;101751.25;;;10.73;100.00
5996;BME280;3026;53.612;7.278;2023-04-26T11:15:45;101747.84;;;10.61;100.00
5996;BME280;3026;53.612;7.278;2023-04-26T11:18:17;101748.00;;;10.32;100.00
5996;BME280;3026;53.612;7.278;2023-04-26T11:20:45;101747.16;;;10.12;100.00
5996;BME280;3026;53.612;7.278;2023-04-26T11:23:12;101764.53;;;10.02;100.00
5996;BME280;3026;53.612;7.278;2023-04-26T11:25:39;101762.13;;;9.79;100.00
5996;BME280;3026;53.612;7.278;2023-04-26T11:28:06;101771.59;;;9.56;100.00
5996;BME280;3026;53.612;7.278;2023-04-26T11:30:33;101778.19;;;9.44;100.00
5996;BME280;3026;53.612;7.278;2023-04-26T11:33:00;101783.34;;;9.27;100.00
5996;BME280;3026;53.612;7.278;2023-04-26T11:35:32;101778.44;;;9.12;100.00
5996;BME280;3026;53.612;7.278;2023-04-26T11:38:02;101774.72;;;9.03;100.00
5996;BME280;3026;53.612;7.278;2023-04-26T11:40:31;101764.94;;;9.00;100.00
5996;BME280;3026;53.612;7.278;2023-04-26T11:42:59;101763.53;;;9.06;100.00
5996;BME280;3026;53.612;7.278;2023-04-26T11:45:27;101763.25;;;9.09;100.00
5996;BME280;3026;53.612;7.278;2023-04-26T11:47:54;101776.16;;;9.17;100.00
5996;BME280;3026;53.612;7.278;2023-04-26T11:50:21;101773.00;;;9.21;100.00
5996;BME280;3026;53.612;7.278;2023-04-26T11:52:53;101767.16;;;9.35;100.00
5996;BME280;3026;53.612;7.278;2023-04-26T11:55:22;101773.06;;;9.50;100.00
5996;BME280;3026;53.612;7.278;2023-04-26T11:57:50;101769.31;;;9.71;100.00
5996;BME280;3026;53.612;7.278;2023-04-26T12:00:18;101766.56;;;10.00;100.00
5996;BME280;3026;53.612;7.278;2023-04-26T12:02:45;101763.78;;;10.29;100.00
5996;BME280;3026;53.612;7.278;2023-04-26T12:05:23;101763.69;;;10.58;100.00
5996;BME280;3026;53.612;7.278;2023-04-26T12:07:53;101764.19;;;10.71;100.00
5996;BME280;3026;53.612;7.278;2023-04-26T12:10:24;101776.31;;;10.86;100.00
5996;BME280;3026;53.612;7.278;2023-04-26T12:12:52;101766.91;;;10.98;100.00
5996;BME280;3026;53.612;7.278;2023-04-26T12:15:22;101777.22;;;11.04;100.00
5996;BME280;3026;53.612;7.278;2023-04-26T12:17:56;101779.03;;;11.14;100.00
5996;BME280;3026;53.612;7.278;2023-04-26T12:20:31;101771.84;;;11.13;100.00
5996;BME280;3026;53.612;7.278;2023-04-26T12:23:01;101769.34;;;11.19;100.00
5996;BME280;3026;53.612;7.278;2023-04-26T12:25:28;101768.97;;;11.32;100.00
5996;BME280;3026;53.612;7.278;2023-04-26T12:27:56;101772.72;;;11.31;100.00
5996;BME280;3026;53.612;7.278;2023-04-26T12:30:24;101769.41;;;11.09;100.00
5996;BME280;3026;53.612;7.278;2023-04-26T12:32:52;101781.41;;;10.99;100.00
5996;BME280;3026;53.612;7.278;2023-04-26T12:35:18;101782.47;;;10.88;100.00
5996;BME280;3026;53.612;7.278;2023-04-26T12:37:45;101795.75;;;10.73;100.00
5996;BME280;3026;53.612;7.278;2023-04-26T12:40:15;101779.72;;;10.61;100.00
5996;BME280;3026;53.612;7.278;2023-04-26T12:42:45;101780.16;;;10.66;100.00
5996;BME280;3026;53.612;7.278;2023-04-26T12:45:12;101776.00;;;10.62;100.00
5996;BME280;3026;53.612;7.278;2023-04-26T12:47:38;101771.25;;;10.64;100.00
5996;BME280;3026;53.612;7.278;2023-04-26T12:50:06;101773.38;;;10.70;100.00
5996;BME280;3026;53.612;7.278;2023-04-26T12:52:33;101787.72;;;10.72;100.00
5996;BME280;3026;53.612;7.278;2023-04-26T12:55:00;101779.66;;;10.80;100.00
5996;BME280;3026;53.612;7.278;2023-04-26T12:57:30;101777.94;;;10.79;100.00
5996;BME280;3026;53.612;7.278;2023-04-26T12:59:57;101780.94;;;10.76;100.00
5996;BME280;3026;53.612;7.278;2023-04-26T13:02:24;101782.72;;;10.67;100.00
5996;BME280;3026;53.612;7.278;2023-04-26T13:04:51;101784.84;;;10.73;100.00
5996;BME280;3026;53.612;7.278;2023-04-26T13:07:18;101789.75;;;10.70;100.00
5996;BME280;3026;53.612;7.278;2023-04-26T13:09:45;101790.06;;;10.67;100.00
5996;BME280;3026;53.612;7.278;2023-04-26T13:12:13;101785.19;;;10.61;100.00
5996;BME280;3026;53.612;7.278;2023-04-26T13:14:41;101785.19;;;10.61;100.00
5996;BME280;3026;53.612;7.278;2023-04-26T13:17:08;101792.34;;;10.62;100.00
5996;BME280;3026;53.612;7.278;2023-04-26T13:19:35;101792.97;;;10.56;100.00